sensor_id;sensor_type;location;lat;lon;timestamp;temperature;humidity
72940;DHT22;61094;51.154;13.570;2023-04-25T00:02:11;7.70;99.90
72940;DHT22;61094;51.154;13.570;2023-04-25T00:07:13;7.70;99.90
72940;DHT22;61094;51.154;13.570;2023-04-25T00:12:15;7.70;99.90
72940;DHT22;61094;51.154;13.570;2023-04-25T00:17:18;7.80;99.90
72940;DHT22;61094;51.154;13.570;2023-04-25T00:22:21;7.70;99.90
72940;DHT22;61094;51.154;13.570;2023-04-25T00:27:22;7.70;99.90
72940;DHT22;61094;51.154;13.570;2023-04-25T00:32:25;7.80;99.90
72940;DHT22;61094;51.154;13.570;2023-04-25T00:37:27;7.80;99.90
72940;DHT22;61094;51.154;13.570;2023-04-25T00:42:29;7.70;99.90
72940;DHT22;61094;51.154;13.570;2023-04-25T00:47:33;7.70;99.90
72940;DHT22;61094;51.154;13.570;2023-04-25T00:52:35;7.50;99.90
72940;DHT22;61094;51.154;13.570;2023-04-25T00:57:37;7.40;99.90
72940;DHT22;61094;51.154;13.570;2023-04-25T01:02:40;7.20;99.90
72940;DHT22;61094;51.154;13.570;2023-04-25T01:07:43;7.20;99.90
72940;DHT22;61094;51.154;13.570;2023-04-25T01:12:45;7.10;99.90
72940;DHT22;61094;51.154;13.570;2023-04-25T01:17:49;7.00;99.90
72940;DHT22;61094;51.154;13.570;2023-04-25T01:22:52;6.90;99.90
72940;DHT22;61094;51.154;13.570;2023-04-25T01:27:55;6.80;99.90
72940;DHT22;61094;51.154;13.570;2023-04-25T01:32:57;6.70;99.90
72940;DHT22;61094;51.154;13.570;2023-04-25T01:38:01;6.60;99.90
72940;DHT22;61094;51.154;13.570;2023-04-25T01:43:03;6.50;99.90
72940;DHT22;61094;51.154;13.570;2023-04-25T01:48:05;6.40;99.90
72940;DHT22;61094;51.154;13.570;2023-04-25T01:53:09;6.30;99.90
72940;DHT22;61094;51.154;13.570;2023-04-25T01:58:11;6.20;99.90
72940;DHT22;61094;51.154;13.570;2023-04-25T02:03:45;6.10;99.90
72940;DHT22;61094;51.154;13.570;2023-04-25T02:09:15;6.00;99.90
72940;DHT22;61094;51.154;13.570;2023-04-25T02:14:36;5.90;99.90
72940;DHT22;61094;51.154;13.570;2023-04-25T02:20:24;5.90;99.90
72940;DHT22;61094;51.154;13.570;2023-04-25T02:25:50;5.80;99.90
72940;DHT22;61094;51.154;13.570;2023-04-25T02:30:52;5.70;99.90
72940;DHT22;61094;51.154;13.570;2023-04-25T02:35:53;5.70;99.90
72940;DHT22;61094;51.154;13.570;2023-04-25T02:46:10;5.50;99.90
72940;DHT22;61094;51.154;13.570;2023-04-25T02:51:14;5.50;99.90
72940;DHT22;61094;51.154;13.570;2023-04-25T02:56:17;5.50;99.90
72940;DHT22;61094;51.154;13.570;2023-04-25T03:01:20;5.50;99.90
72940;DHT22;61094;51.154;13.570;2023-04-25T03:06:22;5.60;99.90
72940;DHT22;61094;51.154;13.570;2023-04-25T03:11:25;5.50;99.90
72940;DHT22;61094;51.154;13.570;2023-04-25T03:16:28;5.50;99.90
72940;DHT22;61094;51.154;13.570;2023-04-25T03:21:32;5.50;99.90
72940;DHT22;61094;51.154;13.570;2023-04-25T03:26:35;5.50;99.90
72940;DHT22;61094;51.154;13.570;2023-04-25T03:31:38;5.40;99.90
72940;DHT22;61094;51.154;13.570;2023-04-25T03:36:39;5.40;99.90
72940;DHT22;61094;51.154;13.570;2023-04-25T03:41:41;5.30;99.90
72940;DHT22;61094;51.154;13.570;2023-04-25T03:46:48;5.30;99.90
72940;DHT22;61094;51.154;13.570;2023-04-25T03:51:50;5.20;99.90
72940;DHT22;61094;51.154;13.570;2023-04-25T03:56:52;5.10;99.90
72940;DHT22;61094;51.154;13.570;2023-04-25T04:01:58;5.10;99.90
72940;DHT22;61094;51.154;13.570;2023-04-25T04:07:00;5.00;99.90
72940;DHT22;61094;51.154;13.570;2023-04-25T04:12:06;5.00;99.90
72940;DHT22;61094;51.154;13.570;2023-04-25T04:17:10;4.90;99.90
72940;DHT22;61094;51.154;13.570;2023-04-25T04:22:13;5.00;99.90
72940;DHT22;61094;51.154;13.570;2023-04-25T04:27:15;5.10;99.90
72940;DHT22;61094;51.154;13.570;2023-04-25T04:32:35;5.20;99.90
72940;DHT22;61094;51.154;13.570;2023-04-25T04:37:39;5.30;99.90
72940;DHT22;61094;51.154;13.570;2023-04-25T04:42:44;5.30;99.90
72940;DHT22;61094;51.154;13.570;2023-04-25T04:47:59;5.50;99.90
72940;DHT22;61094;51.154;13.570;2023-04-25T04:53:21;5.50;99.90
72940;DHT22;61094;51.154;13.570;2023-04-25T04:58:41;5.60;99.90
72940;DHT22;61094;51.154;13.570;2023-04-25T05:03:58;5.70;99.90
72940;DHT22;61094;51.154;13.570;2023-04-25T05:09:19;5.80;99.90
72940;DHT22;61094;51.154;13.570;2023-04-25T05:14:40;5.80;99.90
72940;DHT22;61094;51.154;13.570;2023-04-25T05:20:09;6.00;99.90
72940;DHT22;61094;51.154;13.570;2023-04-25T05:25:31;6.00;99.90
72940;DHT22;61094;51.154;13.570;2023-04-25T05:30:49;6.10;99.90
72940;DHT22;61094;51.154;13.570;2023-04-25T05:36:08;6.30;99.90
72940;DHT22;61094;51.154;13.570;2023-04-25T05:41:10;6.40;99.90
72940;DHT22;61094;51.154;13.570;2023-04-25T05:46:18;6.50;99.90
72940;DHT22;61094;51.154;13.570;2023-04-25T05:51:42;6.60;99.90
72940;DHT22;61094;51.154;13.570;2023-04-25T05:57:02;6.70;99.90
72940;DHT22;61094;51.154;13.570;2023-04-25T06:02:05;6.80;99.90
72940;DHT22;61094;51.154;13.570;2023-04-25T06:07:10;7.00;99.90
72940;DHT22;61094;51.154;13.570;2023-04-25T06:12:13;7.10;99.70
72940;DHT22;61094;51.154;13.570;2023-04-25T06:17:16;7.20;99.00
72940;DHT22;61094;51.154;13.570;2023-04-25T06:22:25;7.30;99.90
72940;DHT22;61094;51.154;13.570;2023-04-25T06:27:27;7.40;98.40
72940;DHT22;61094;51.154;13.570;2023-04-25T06:32:30;7.40;97.10
72940;DHT22;61094;51.154;13.570;2023-04-25T06:37:36;7.50;96.90
72940;DHT22;61094;51.154;13.570;2023-04-25T06:42:39;7.70;97.00
72940;DHT22;61094;51.154;13.570;2023-04-25T06:48:00;7.80;96.00
72940;DHT22;61094;51.154;13.570;2023-04-25T06:53:05;7.90;95.50
72940;DHT22;61094;51.154;13.570;2023-04-25T06:58:11;8.10;96.00
72940;DHT22;61094;51.154;13.570;2023-04-25T07:03:26;8.20;94.70
72940;DHT22;61094;51.154;13.570;2023-04-25T07:08:35;8.40;94.00
72940;DHT22;61094;51.154;13.570;2023-04-25T07:13:37;8.70;91.70
72940;DHT22;61094;51.154;13.570;2023-04-25T07:18:41;9.10;91.50
72940;DHT22;61094;51.154;13.570;2023-04-25T07:23:45;9.70;88.10
72940;DHT22;61094;51.154;13.570;2023-04-25T07:28:51;10.20;82.60
72940;DHT22;61094;51.154;13.570;2023-04-25T07:33:53;10.60;71.50
72940;DHT22;61094;51.154;13.570;2023-04-25T07:38:56;10.90;70.50
72940;DHT22;61094;51.154;13.570;2023-04-25T07:43:58;11.20;64.20
72940;DHT22;61094;51.154;13.570;2023-04-25T07:49:00;11.30;73.70
72940;DHT22;61094;51.154;13.570;2023-04-25T07:54:04;11.50;59.40
72940;DHT22;61094;51.154;13.570;2023-04-25T07:59:08;11.50;64.90
72940;DHT22;61094;51.154;13.570;2023-04-25T08:04:10;11.60;61.20
72940;DHT22;61094;51.154;13.570;2023-04-25T08:09:24;11.70;67.10
72940;DHT22;61094;51.154;13.570;2023-04-25T08:14:27;11.50;63.30
72940;DHT22;61094;51.154;13.570;2023-04-25T08:19:29;11.10;67.40
72940;DHT22;61094;51.154;13.570;2023-04-25T08:24:33;10.80;71.00
72940;DHT22;61094;51.154;13.570;2023-04-25T08:29:35;10.50;79.70
72940;DHT22;61094;51.154;13.570;2023-04-25T08:34:37;10.70;81.40
72940;DHT22;61094;51.154;13.570;2023-04-25T08:39:44;10.60;79.70
72940;DHT22;61094;51.154;13.570;2023-04-25T08:45:08;10.50;80.70
72940;DHT22;61094;51.154;13.570;2023-04-25T08:50:12;10.20;72.30
72940;DHT22;61094;51.154;13.570;2023-04-25T08:55:16;10.40;77.20
72940;DHT22;61094;51.154;13.570;2023-04-25T09:00:18;11.20;69.30
72940;DHT22;61094;51.154;13.570;2023-04-25T09:10:44;11.90;63.00
72940;DHT22;61094;51.154;13.570;2023-04-25T09:15:49;11.30;66.90
72940;DHT22;61094;51.154;13.570;2023-04-25T09:21:11;10.80;72.30
72940;DHT22;61094;51.154;13.570;2023-04-25T09:26:15;10.60;71.90
72940;DHT22;61094;51.154;13.570;2023-04-25T09:31:21;10.60;76.00
72940;DHT22;61094;51.154;13.570;2023-04-25T09:36:26;10.70;77.70
72940;DHT22;61094;51.154;13.570;2023-04-25T09:41:53;10.70;79.90
72940;DHT22;61094;51.154;13.570;2023-04-25T09:46:56;10.70;76.80
72940;DHT22;61094;51.154;13.570;2023-04-25T09:52:01;10.50;80.70
72940;DHT22;61094;51.154;13.570;2023-04-25T09:57:16;10.50;82.40
72940;DHT22;61094;51.154;13.570;2023-04-25T10:02:20;10.50;86.40
72940;DHT22;61094;51.154;13.570;2023-04-25T10:07:27;10.50;85.80
72940;DHT22;61094;51.154;13.570;2023-04-25T10:12:32;10.30;87.00
72940;DHT22;61094;51.154;13.570;2023-04-25T10:17:35;10.20;89.40
72940;DHT22;61094;51.154;13.570;2023-04-25T10:22:39;10.20;90.10
72940;DHT22;61094;51.154;13.570;2023-04-25T10:27:45;10.20;89.40
72940;DHT22;61094;51.154;13.570;2023-04-25T10:32:47;10.10;90.40
72940;DHT22;61094;51.154;13.570;2023-04-25T10:37:59;9.90;89.80
72940;DHT22;61094;51.154;13.570;2023-04-25T10:43:36;9.70;92.10
72940;DHT22;61094;51.154;13.570;2023-04-25T10:48:45;9.60;92.40
72940;DHT22;61094;51.154;13.570;2023-04-25T10:53:57;9.50;94.80
72940;DHT22;61094;51.154;13.570;2023-04-25T10:59:05;9.20;97.90
72940;DHT22;61094;51.154;13.570;2023-04-25T11:04:20;9.10;97.90
72940;DHT22;61094;51.154;13.570;2023-04-25T11:09:24;9.20;95.50
72940;DHT22;61094;51.154;13.570;2023-04-25T11:14:28;9.30;93.50
72940;DHT22;61094;51.154;13.570;2023-04-25T11:19:30;9.30;90.20
72940;DHT22;61094;51.154;13.570;2023-04-25T11:24:33;9.50;90.70
72940;DHT22;61094;51.154;13.570;2023-04-25T11:29:37;9.80;89.10
72940;DHT22;61094;51.154;13.570;2023-04-25T11:34:43;10.10;82.40
72940;DHT22;61094;51.154;13.570;2023-04-25T11:39:45;10.40;87.20
72940;DHT22;61094;51.154;13.570;2023-04-25T11:44:49;10.70;81.60
72940;DHT22;61094;51.154;13.570;2023-04-25T11:49:53;10.90;80.30
72940;DHT22;61094;51.154;13.570;2023-04-25T11:54:56;10.90;78.50
72940;DHT22;61094;51.154;13.570;2023-04-25T12:00:05;10.60;76.30
72940;DHT22;61094;51.154;13.570;2023-04-25T12:05:14;10.50;66.10
72940;DHT22;61094;51.154;13.570;2023-04-25T12:10:17;10.40;70.00
72940;DHT22;61094;51.154;13.570;2023-04-25T12:15:25;10.30;69.80
72940;DHT22;61094;51.154;13.570;2023-04-25T12:20:26;10.30;77.10
72940;DHT22;61094;51.154;13.570;2023-04-25T12:25:35;10.50;70.30
72940;DHT22;61094;51.154;13.570;2023-04-25T12:30:56;10.70;61.20
72940;DHT22;61094;51.154;13.570;2023-04-25T12:35:59;10.90;56.60
72940;DHT22;61094;51.154;13.570;2023-04-25T12:41:04;11.00;55.90
72940;DHT22;61094;51.154;13.570;2023-04-25T12:46:07;10.80;58.70
72940;DHT22;61094;51.154;13.570;2023-04-25T12:51:09;10.60;62.70
72940;DHT22;61094;51.154;13.570;2023-04-25T12:56:11;10.40;65.80
72940;DHT22;61094;51.154;13.570;2023-04-25T13:01:14;10.30;71.90
72940;DHT22;61094;51.154;13.570;2023-04-25T13:06:16;10.10;80.80
72940;DHT22;61094;51.154;13.570;2023-04-25T13:11:21;9.80;78.30
72940;DHT22;61094;51.154;13.570;2023-04-25T13:16:24;9.60;83.40
72940;DHT22;61094;51.154;13.570;2023-04-25T13:21:26;9.40;78.40
72940;DHT22;61094;51.154;13.570;2023-04-25T13:26:28;9.30;80.60
72940;DHT22;61094;51.154;13.570;2023-04-25T13:31:31;9.30;82.60
72940;DHT22;61094;51.154;13.570;2023-04-25T13:36:33;9.30;77.40
72940;DHT22;61094;51.154;13.570;2023-04-25T13:41:34;9.30;64.40
72940;DHT22;61094;51.154;13.570;2023-04-25T13:46:38;9.30;64.60
72940;DHT22;61094;51.154;13.570;2023-04-25T13:51:40;9.50;64.70
72940;DHT22;61094;51.154;13.570;2023-04-25T13:56:42;9.70;64.50
72940;DHT22;61094;51.154;13.570;2023-04-25T14:01:45;9.90;62.40
72940;DHT22;61094;51.154;13.570;2023-04-25T14:06:47;10.00;55.10
72940;DHT22;61094;51.154;13.570;2023-04-25T14:11:49;10.00;56.00
72940;DHT22;61094;51.154;13.570;2023-04-25T14:16:52;10.20;58.00
72940;DHT22;61094;51.154;13.570;2023-04-25T14:22:01;10.50;55.90
72940;DHT22;61094;51.154;13.570;2023-04-25T14:27:03;11.10;57.10
72940;DHT22;61094;51.154;13.570;2023-04-25T14:32:06;11.50;48.60
72940;DHT22;61094;51.154;13.570;2023-04-25T14:37:08;11.20;49.30
72940;DHT22;61094;51.154;13.570;2023-04-25T14:42:10;10.90;49.00
72940;DHT22;61094;51.154;13.570;2023-04-25T14:47:13;11.30;45.20
72940;DHT22;61094;51.154;13.570;2023-04-25T14:52:16;11.50;43.00
72940;DHT22;61094;51.154;13.570;2023-04-25T14:57:18;11.60;42.60
72940;DHT22;61094;51.154;13.570;2023-04-25T15:02:21;11.30;44.30
72940;DHT22;61094;51.154;13.570;2023-04-25T15:07:23;11.00;44.80
72940;DHT22;61094;51.154;13.570;2023-04-25T15:12:25;10.60;45.00
72940;DHT22;61094;51.154;13.570;2023-04-25T15:17:30;10.30;46.20
72940;DHT22;61094;51.154;13.570;2023-04-25T15:22:32;10.10;46.10
72940;DHT22;61094;51.154;13.570;2023-04-25T15:27:34;9.90;47.70
72940;DHT22;61094;51.154;13.570;2023-04-25T15:32:40;9.80;47.60
72940;DHT22;61094;51.154;13.570;2023-04-25T15:37:42;9.60;48.50
72940;DHT22;61094;51.154;13.570;2023-04-25T15:42:44;9.50;48.00
72940;DHT22;61094;51.154;13.570;2023-04-25T15:47:58;9.50;48.50
72940;DHT22;61094;51.154;13.570;2023-04-25T15:53:02;9.50;47.20
72940;DHT22;61094;51.154;13.570;2023-04-25T15:58:05;9.60;47.00
72940;DHT22;61094;51.154;13.570;2023-04-25T16:03:10;9.80;46.80
72940;DHT22;61094;51.154;13.570;2023-04-25T16:08:13;9.90;47.20
72940;DHT22;61094;51.154;13.570;2023-04-25T16:13:15;9.90;44.70
72940;DHT22;61094;51.154;13.570;2023-04-25T16:18:18;10.10;44.40
72940;DHT22;61094;51.154;13.570;2023-04-25T16:23:20;10.30;44.50
72940;DHT22;61094;51.154;13.570;2023-04-25T16:28:22;10.30;40.80
72940;DHT22;61094;51.154;13.570;2023-04-25T16:33:25;10.00;41.60
72940;DHT22;61094;51.154;13.570;2023-04-25T16:38:27;9.70;43.20
72940;DHT22;61094;51.154;13.570;2023-04-25T16:43:28;9.50;43.90
72940;DHT22;61094;51.154;13.570;2023-04-25T16:48:33;9.30;44.50
72940;DHT22;61094;51.154;13.570;2023-04-25T16:53:35;9.20;45.10
72940;DHT22;61094;51.154;13.570;2023-04-25T16:58:37;9.20;45.80
72940;DHT22;61094;51.154;13.570;2023-04-25T17:03:40;9.20;45.90
72940;DHT22;61094;51.154;13.570;2023-04-25T17:08:43;9.20;46.90
72940;DHT22;61094;51.154;13.570;2023-04-25T17:13:46;9.30;47.20
72940;DHT22;61094;51.154;13.570;2023-04-25T17:18:49;9.40;46.80
72940;DHT22;61094;51.154;13.570;2023-04-25T17:23:51;9.30;46.50
72940;DHT22;61094;51.154;13.570;2023-04-25T17:28:54;9.10;47.30
72940;DHT22;61094;51.154;13.570;2023-04-25T17:33:58;8.90;48.40
72940;DHT22;61094;51.154;13.570;2023-04-25T17:39:00;8.70;47.60
72940;DHT22;61094;51.154;13.570;2023-04-25T17:44:05;8.60;49.00
72940;DHT22;61094;51.154;13.570;2023-04-25T17:49:08;8.50;51.50
72940;DHT22;61094;51.154;13.570;2023-04-25T17:54:11;8.40;51.70
72940;DHT22;61094;51.154;13.570;2023-04-25T17:59:13;8.30;53.00
72940;DHT22;61094;51.154;13.570;2023-04-25T18:04:16;8.20;55.60
72940;DHT22;61094;51.154;13.570;2023-04-25T18:09:18;8.20;56.40
72940;DHT22;61094;51.154;13.570;2023-04-25T18:14:23;8.10;58.30
72940;DHT22;61094;51.154;13.570;2023-04-25T18:19:26;8.10;61.70
72940;DHT22;61094;51.154;13.570;2023-04-25T18:24:28;8.00;63.20
72940;DHT22;61094;51.154;13.570;2023-04-25T18:29:30;8.00;61.60
72940;DHT22;61094;51.154;13.570;2023-04-25T18:34:33;7.90;64.40
72940;DHT22;61094;51.154;13.570;2023-04-25T18:39:35;7.90;64.80
72940;DHT22;61094;51.154;13.570;2023-04-25T18:44:37;7.80;65.90
72940;DHT22;61094;51.154;13.570;2023-04-25T18:49:41;7.60;67.10
72940;DHT22;61094;51.154;13.570;2023-04-25T18:54:44;7.50;68.40
72940;DHT22;61094;51.154;13.570;2023-04-25T18:59:46;7.30;66.20
72940;DHT22;61094;51.154;13.570;2023-04-25T19:04:49;7.20;69.10
72940;DHT22;61094;51.154;13.570;2023-04-25T19:09:51;7.10;70.90
72940;DHT22;61094;51.154;13.570;2023-04-25T19:14:53;6.90;74.10
72940;DHT22;61094;51.154;13.570;2023-04-25T19:19:57;6.80;78.40
72940;DHT22;61094;51.154;13.570;2023-04-25T19:24:58;6.70;84.30
72940;DHT22;61094;51.154;13.570;2023-04-25T19:30:00;6.70;84.50
72940;DHT22;61094;51.154;13.570;2023-04-25T19:35:09;6.60;85.60
72940;DHT22;61094;51.154;13.570;2023-04-25T19:40:12;6.50;86.10
72940;DHT22;61094;51.154;13.570;2023-04-25T19:45:14;6.40;87.00
72940;DHT22;61094;51.154;13.570;2023-04-25T19:50:17;6.30;85.30
72940;DHT22;61094;51.154;13.570;2023-04-25T19:55:19;6.20;89.00
72940;DHT22;61094;51.154;13.570;2023-04-25T20:00:21;6.10;90.00
72940;DHT22;61094;51.154;13.570;2023-04-25T20:05:24;6.00;89.40
72940;DHT22;61094;51.154;13.570;2023-04-25T20:10:27;5.90;90.40
72940;DHT22;61094;51.154;13.570;2023-04-25T20:15:29;5.80;90.80
72940;DHT22;61094;51.154;13.570;2023-04-25T20:20:32;5.70;91.40
72940;DHT22;61094;51.154;13.570;2023-04-25T20:25:34;5.70;92.20
72940;DHT22;61094;51.154;13.570;2023-04-25T20:30:36;5.60;92.60
72940;DHT22;61094;51.154;13.570;2023-04-25T20:35:39;5.60;92.70
72940;DHT22;61094;51.154;13.570;2023-04-25T20:40:41;5.60;92.80
72940;DHT22;61094;51.154;13.570;2023-04-25T20:45:43;5.60;93.00
72940;DHT22;61094;51.154;13.570;2023-04-25T20:50:46;5.70;91.90
72940;DHT22;61094;51.154;13.570;2023-04-25T20:55:48;5.70;91.80
72940;DHT22;61094;51.154;13.570;2023-04-25T21:00:49;5.80;91.70
72940;DHT22;61094;51.154;13.570;2023-04-25T21:05:53;5.70;91.90
72940;DHT22;61094;51.154;13.570;2023-04-25T21:10:56;5.70;91.30
72940;DHT22;61094;51.154;13.570;2023-04-25T21:15:57;5.70;91.30
72940;DHT22;61094;51.154;13.570;2023-04-25T21:21:12;5.70;91.10
72940;DHT22;61094;51.154;13.570;2023-04-25T21:26:14;5.60;91.30
72940;DHT22;61094;51.154;13.570;2023-04-25T21:31:16;5.60;92.10
72940;DHT22;61094;51.154;13.570;2023-04-25T21:36:21;5.50;92.20
72940;DHT22;61094;51.154;13.570;2023-04-25T21:41:23;5.60;92.50
72940;DHT22;61094;51.154;13.570;2023-04-25T21:46:26;5.60;92.70
72940;DHT22;61094;51.154;13.570;2023-04-25T21:51:31;5.70;93.30
72940;DHT22;61094;51.154;13.570;2023-04-25T21:56:46;5.70;93.20
72940;DHT22;61094;51.154;13.570;2023-04-25T22:01:47;5.80;93.20
72940;DHT22;61094;51.154;13.570;2023-04-25T22:06:51;5.80;93.60
72940;DHT22;61094;51.154;13.570;2023-04-25T22:11:52;5.90;93.40
72940;DHT22;61094;51.154;13.570;2023-04-25T22:16:54;5.90;92.70
72940;DHT22;61094;51.154;13.570;2023-04-25T22:21:57;6.00;93.10
72940;DHT22;61094;51.154;13.570;2023-04-25T22:26:59;6.00;93.30
72940;DHT22;61094;51.154;13.570;2023-04-25T22:32:02;6.00;93.50
72940;DHT22;61094;51.154;13.570;2023-04-25T22:37:05;6.00;92.70
72940;DHT22;61094;51.154;13.570;2023-04-25T22:42:06;6.00;92.90
72940;DHT22;61094;51.154;13.570;2023-04-25T22:47:08;6.00;93.40
72940;DHT22;61094;51.154;13.570;2023-04-25T22:52:11;5.90;94.10
72940;DHT22;61094;51.154;13.570;2023-04-25T22:57:13;5.80;95.10
72940;DHT22;61094;51.154;13.570;2023-04-25T23:02:16;5.80;95.70
72940;DHT22;61094;51.154;13.570;2023-04-25T23:07:19;5.70;96.40
72940;DHT22;61094;51.154;13.570;2023-04-25T23:12:21;5.70;97.00
72940;DHT22;61094;51.154;13.570;2023-04-25T23:17:23;5.60;97.40
72940;DHT22;61094;51.154;13.570;2023-04-25T23:22:26;5.60;97.30
72940;DHT22;61094;51.154;13.570;2023-04-25T23:27:28;5.60;97.30
72940;DHT22;61094;51.154;13.570;2023-04-25T23:32:29;5.60;97.40
72940;DHT22;61094;51.154;13.570;2023-04-25T23:37:33;5.60;97.40
72940;DHT22;61094;51.154;13.570;2023-04-25T23:42:37;5.60;97.50
72940;DHT22;61094;51.154;13.570;2023-04-25T23:47:38;5.60;97.50
72940;DHT22;61094;51.154;13.570;2023-04-25T23:52:42;5.60;98.00
72940;DHT22;61094;51.154;13.570;2023-04-25T23:57:43;5.60;97.90
